createdAt,value
2023-03-21T00:01:52.530Z,40.10
2023-03-21T00:04:22.122Z,43.10
2023-03-21T00:06:51.074Z,35.90
2023-03-21T00:09:20.112Z,32.00
2023-03-21T00:11:49.323Z,35.40
2023-03-21T00:14:19.480Z,39.00
2023-03-21T00:16:49.944Z,35.20
2023-03-21T00:19:20.835Z,39.60
2023-03-21T00:22:06.560Z,34.70
2023-03-21T00:24:37.599Z,36.30
2023-03-21T00:27:43.007Z,32.50
2023-03-21T00:29:56.281Z,35.90
2023-03-21T00:32:25.235Z,38.10
2023-03-21T00:35:11.776Z,37.20
2023-03-21T00:37:43.181Z,32.70
2023-03-21T00:40:25.436Z,34.60
2023-03-21T00:42:56.782Z,37.40
2023-03-21T00:45:25.796Z,40.80
2023-03-21T00:47:54.996Z,37.90
2023-03-21T00:50:24.266Z,41.20
2023-03-21T00:52:53.282Z,41.20
2023-03-21T00:55:22.252Z,34.20
2023-03-21T00:58:01.281Z,34.20
2023-03-21T01:00:32.411Z,41.20
2023-03-21T01:03:17.586Z,34.80
2023-03-21T01:06:06.400Z,36.20
2023-03-21T01:08:51.051Z,40.50
2023-03-21T01:11:23.388Z,33.10
2023-03-21T01:13:59.875Z,35.90
2023-03-21T01:16:37.438Z,36.30
2023-03-21T01:19:15.018Z,36.30
2023-03-21T01:21:51.274Z,42.30
2023-03-21T01:24:20.589Z,35.00
2023-03-21T01:26:49.721Z,32.90
2023-03-21T01:29:18.719Z,35.10
2023-03-21T01:31:47.943Z,31.40
2023-03-21T01:34:16.982Z,32.00
2023-03-21T01:36:45.924Z,33.90
2023-03-21T01:39:15.050Z,37.30
2023-03-21T01:41:44.813Z,33.00
2023-03-21T01:44:17.088Z,36.00
2023-03-21T01:46:57.460Z,39.30
2023-03-21T01:49:41.108Z,31.30
2023-03-21T01:52:26.551Z,38.70
2023-03-21T01:55:04.578Z,32.90
2023-03-21T01:57:43.886Z,39.90
2023-03-21T02:00:17.871Z,33.00
2023-03-21T02:02:52.140Z,33.80
2023-03-21T02:05:27.545Z,36.50
2023-03-21T02:07:56.759Z,32.20
2023-03-21T02:10:27.010Z,32.60
2023-03-21T02:12:58.289Z,34.60
2023-03-21T02:15:28.061Z,36.10
2023-03-21T02:18:03.226Z,35.70
2023-03-21T02:21:05.306Z,39.60
2023-03-21T02:24:10.988Z,31.90
2023-03-21T02:27:21.838Z,27.90
2023-03-21T02:30:50.891Z,37.10
2023-03-21T02:34:03.883Z,27.00
2023-03-21T02:37:01.182Z,33.40
2023-03-21T02:39:40.962Z,26.70
2023-03-21T02:42:17.975Z,34.80
2023-03-21T02:44:50.418Z,28.60
2023-03-21T02:47:26.376Z,30.60
2023-03-21T02:52:38.552Z,30.90
2023-03-21T02:55:13.334Z,33.40
2023-03-21T02:57:45.372Z,29.10
2023-03-21T03:00:20.199Z,34.40
2023-03-21T03:02:54.553Z,33.00
2023-03-21T03:05:31.206Z,33.50
2023-03-21T03:08:11.501Z,37.60
2023-03-21T03:10:54.244Z,33.20
2023-03-21T03:13:37.608Z,31.80
2023-03-21T03:16:19.307Z,39.20
2023-03-21T03:18:52.774Z,38.30
2023-03-21T03:21:29.953Z,33.90
2023-03-21T03:24:03.181Z,37.10
2023-03-21T03:26:36.956Z,30.60
2023-03-21T03:29:09.463Z,30.90
2023-03-21T03:31:44.269Z,45.60
2023-03-21T03:34:16.496Z,37.20
2023-03-21T03:36:50.955Z,32.80
2023-03-21T03:39:20.595Z,33.00
2023-03-21T03:42:10.196Z,30.90
2023-03-21T03:44:45.144Z,33.00
2023-03-21T03:47:32.219Z,34.50
2023-03-21T03:50:09.224Z,38.60
2023-03-21T03:52:55.361Z,35.00
2023-03-21T03:55:27.615Z,29.00
2023-03-21T03:57:56.861Z,28.40
2023-03-21T04:00:27.590Z,38.30
2023-03-21T04:02:58.553Z,34.40
2023-03-21T04:05:27.610Z,39.90
2023-03-21T04:07:56.596Z,32.10
2023-03-21T04:10:25.654Z,41.60
2023-03-21T04:12:54.601Z,37.40
2023-03-21T04:15:23.642Z,30.20
2023-03-21T04:17:52.770Z,33.00
2023-03-21T04:20:34.132Z,34.40
2023-03-21T04:23:05.136Z,45.20
2023-03-21T04:25:36.903Z,29.50
2023-03-21T04:28:07.639Z,38.90
2023-03-21T04:30:37.689Z,36.60
2023-03-21T04:33:07.332Z,31.50
2023-03-21T04:35:37.665Z,32.20
2023-03-21T04:38:06.847Z,38.30
2023-03-21T04:40:36.068Z,36.00
2023-03-21T04:43:05.304Z,32.70
2023-03-21T04:45:34.248Z,35.20
2023-03-21T04:48:03.891Z,36.90
2023-03-21T04:50:32.741Z,32.80
2023-03-21T04:53:01.750Z,32.00
2023-03-21T04:55:31.858Z,29.90
2023-03-21T04:58:00.894Z,43.50
2023-03-21T05:00:31.422Z,35.90
2023-03-21T05:03:00.527Z,34.60
2023-03-21T05:05:29.551Z,31.90
2023-03-21T05:07:59.993Z,28.20
2023-03-21T05:10:29.039Z,32.60
2023-03-21T05:12:58.109Z,40.50
2023-03-21T05:15:27.288Z,30.90
2023-03-21T05:17:58.109Z,31.20
2023-03-21T05:20:27.149Z,34.70
2023-03-21T05:22:56.127Z,48.40
2023-03-21T05:25:33.487Z,36.50
2023-03-21T05:28:03.892Z,34.90
2023-03-21T05:30:33.442Z,33.20
2023-03-21T05:33:03.103Z,38.50
2023-03-21T05:35:32.404Z,31.80
2023-03-21T05:38:01.474Z,31.80
2023-03-21T05:40:30.568Z,35.50
2023-03-21T05:42:59.492Z,31.50
2023-03-21T05:45:28.430Z,33.70
2023-03-21T05:47:57.507Z,44.20
2023-03-21T05:50:26.519Z,34.70
2023-03-21T05:52:55.573Z,34.90
2023-03-21T05:55:24.682Z,31.20
2023-03-21T05:57:53.737Z,36.10
2023-03-21T06:00:23.313Z,38.70
2023-03-21T06:02:52.177Z,56.60
2023-03-21T06:05:21.300Z,36.80
2023-03-21T06:07:50.423Z,40.40
2023-03-21T06:10:19.910Z,39.30
2023-03-21T06:12:48.866Z,33.40
2023-03-21T06:15:17.728Z,30.30
2023-03-21T06:17:46.701Z,38.00
2023-03-21T06:20:15.726Z,30.30
2023-03-21T06:22:44.862Z,29.80
2023-03-21T06:25:14.101Z,32.00
2023-03-21T06:27:43.050Z,38.50
2023-03-21T06:30:14.528Z,32.00
2023-03-21T06:32:43.466Z,24.70
2023-03-21T06:35:12.547Z,37.50
2023-03-21T06:37:42.409Z,39.50
2023-03-21T06:40:13.154Z,31.10
2023-03-21T06:42:42.096Z,25.70
2023-03-21T06:45:11.751Z,34.40
2023-03-21T06:47:40.891Z,32.30
2023-03-21T06:50:11.765Z,48.90
2023-03-21T06:52:40.605Z,31.50
2023-03-21T06:55:10.505Z,31.70
2023-03-21T06:57:39.413Z,27.70
2023-03-21T07:00:11.598Z,28.90
2023-03-21T07:02:40.909Z,34.10
2023-03-21T07:05:10.938Z,30.40
2023-03-21T07:07:40.453Z,31.30
2023-03-21T07:10:11.698Z,30.00
2023-03-21T07:12:40.593Z,25.10
2023-03-21T07:15:11.274Z,34.80
2023-03-21T07:17:40.374Z,28.60
2023-03-21T07:20:12.134Z,40.20
2023-03-21T07:22:41.300Z,28.10
2023-03-21T07:25:11.783Z,31.00
2023-03-21T07:27:41.700Z,33.70
2023-03-21T07:30:12.964Z,35.50
2023-03-21T07:32:42.658Z,32.30
2023-03-21T07:35:15.446Z,34.20
2023-03-21T07:37:44.420Z,32.60
2023-03-21T07:40:13.967Z,30.50
2023-03-21T07:42:43.329Z,32.10
2023-03-21T07:45:15.287Z,34.10
2023-03-21T07:47:44.824Z,32.20
2023-03-21T07:50:14.728Z,24.10
2023-03-21T07:52:43.853Z,26.80
2023-03-21T07:55:12.834Z,34.30
2023-03-21T07:57:41.782Z,23.70
2023-03-21T08:00:22.154Z,23.30
2023-03-21T08:02:57.062Z,25.40
2023-03-21T08:05:29.897Z,26.80
2023-03-21T08:07:58.856Z,27.70
2023-03-21T08:10:28.349Z,31.50
2023-03-21T08:12:57.877Z,30.60
2023-03-21T08:15:26.857Z,26.50
2023-03-21T08:17:55.778Z,32.50
2023-03-21T08:20:24.878Z,25.20
2023-03-21T08:22:54.077Z,25.50
2023-03-21T08:25:23.572Z,25.10
2023-03-21T08:27:52.958Z,19.80
2023-03-21T08:30:25.329Z,22.60
2023-03-21T08:33:00.522Z,23.70
2023-03-21T08:35:31.342Z,24.20
2023-03-21T08:38:01.774Z,29.10
2023-03-21T08:40:30.846Z,18.50
2023-03-21T08:43:00.192Z,21.80
2023-03-21T08:45:29.384Z,24.80
2023-03-21T08:47:58.486Z,21.50
2023-03-21T08:50:29.060Z,26.60
2023-03-21T08:52:58.189Z,19.60
2023-03-21T08:55:27.167Z,23.70
2023-03-21T08:57:57.561Z,23.10
2023-03-21T09:00:27.002Z,23.00
2023-03-21T09:02:58.132Z,25.20
2023-03-21T09:05:27.804Z,30.20
2023-03-21T09:07:57.133Z,27.30
2023-03-21T09:10:26.117Z,23.00
2023-03-21T09:12:55.686Z,23.00
2023-03-21T09:15:29.295Z,19.90
2023-03-21T09:18:12.371Z,28.30
2023-03-21T09:20:42.348Z,23.20
2023-03-21T09:23:12.651Z,18.80
2023-03-21T09:25:42.703Z,29.90
2023-03-21T09:28:12.619Z,22.10
2023-03-21T09:30:41.675Z,19.50
2023-03-21T09:33:18.694Z,19.90
2023-03-21T09:35:49.549Z,24.00
2023-03-21T09:38:20.275Z,18.30
2023-03-21T09:41:03.495Z,22.60
2023-03-21T09:43:43.985Z,22.30
2023-03-21T09:46:24.130Z,17.80
2023-03-21T09:48:59.020Z,25.00
2023-03-21T09:51:32.125Z,17.20
2023-03-21T09:54:07.558Z,16.00
2023-03-21T09:56:38.545Z,26.80
2023-03-21T09:59:11.357Z,16.80
2023-03-21T10:01:44.919Z,17.80
2023-03-21T10:04:18.213Z,18.60
2023-03-21T10:06:55.085Z,23.80
2023-03-21T10:09:27.637Z,18.00
2023-03-21T10:12:01.031Z,19.10
2023-03-21T10:14:33.023Z,30.80
2023-03-21T10:17:06.920Z,21.50
2023-03-21T10:19:35.978Z,21.80
2023-03-21T10:22:05.110Z,18.50
2023-03-21T10:24:35.152Z,20.50
2023-03-21T10:27:05.264Z,18.10
2023-03-21T10:29:44.242Z,21.20
2023-03-21T10:32:17.373Z,17.40
2023-03-21T10:34:50.532Z,22.40
2023-03-21T10:37:20.211Z,17.20
2023-03-21T10:39:51.618Z,16.50
2023-03-21T10:42:24.177Z,19.20
2023-03-21T10:44:54.614Z,17.20
2023-03-21T10:47:26.353Z,20.30
2023-03-21T10:50:11.598Z,21.10
2023-03-21T10:52:47.893Z,17.40
2023-03-21T10:55:28.261Z,22.80
2023-03-21T10:58:00.676Z,20.50
2023-03-21T11:00:35.927Z,18.40
2023-03-21T11:03:06.956Z,22.00
2023-03-21T11:05:40.092Z,20.40
2023-03-21T11:08:13.785Z,25.50
2023-03-21T11:11:00.108Z,26.40
2023-03-21T11:13:37.654Z,19.90
2023-03-21T11:16:10.342Z,21.50
2023-03-21T11:18:44.313Z,20.40
2023-03-21T11:21:15.079Z,27.50
2023-03-21T11:23:47.496Z,22.30
2023-03-21T11:26:26.347Z,20.10
2023-03-21T11:28:57.168Z,19.20
2023-03-21T11:31:38.503Z,18.80
2023-03-21T11:34:09.730Z,22.40
2023-03-21T11:36:39.060Z,23.20
2023-03-21T11:39:33.383Z,25.60
2023-03-21T11:42:02.630Z,23.00
2023-03-21T11:44:34.997Z,32.60
2023-03-21T11:47:04.154Z,22.30
2023-03-21T11:49:33.035Z,22.20
2023-03-21T11:52:11.864Z,21.10
2023-03-21T11:54:58.335Z,19.00
2023-03-21T11:57:36.737Z,21.30
2023-03-21T12:00:15.349Z,19.90
2023-03-21T12:03:38.186Z,23.50
2023-03-21T12:06:22.479Z,17.40
2023-03-21T12:09:03.495Z,19.60
2023-03-21T12:11:41.149Z,24.80
2023-03-21T12:14:17.566Z,19.50
2023-03-21T12:16:59.131Z,23.40
2023-03-21T12:19:52.100Z,27.90
2023-03-21T12:22:33.417Z,19.30
2023-03-21T12:25:10.144Z,24.70
2023-03-21T12:27:50.344Z,24.90
2023-03-21T12:30:31.814Z,21.50
2023-03-21T12:33:25.499Z,18.90
2023-03-21T12:36:12.505Z,20.10
2023-03-21T12:38:53.830Z,20.90
2023-03-21T12:41:26.876Z,27.30
2023-03-21T12:44:02.263Z,26.20
2023-03-21T12:46:37.308Z,24.00
2023-03-21T12:49:14.169Z,23.10
2023-03-21T12:51:46.962Z,30.10
2023-03-21T12:54:26.660Z,25.80
2023-03-21T12:57:01.119Z,23.30
2023-03-21T12:59:38.385Z,21.00
2023-03-21T13:02:20.213Z,24.00
2023-03-21T13:05:01.393Z,23.40
2023-03-21T13:07:37.714Z,19.20
2023-03-21T13:10:15.222Z,21.60
2023-03-21T13:12:55.720Z,24.30
2023-03-21T13:15:39.371Z,21.30
2023-03-21T13:18:20.860Z,21.50
2023-03-21T13:20:53.426Z,23.70
2023-03-21T13:23:23.924Z,23.80
2023-03-21T13:25:55.740Z,22.60
2023-03-21T13:28:29.298Z,25.50
2023-03-21T13:31:19.918Z,21.90
2023-03-21T13:33:50.501Z,22.20
2023-03-21T13:36:26.118Z,21.80
2023-03-21T13:39:01.492Z,25.30
2023-03-21T13:41:35.052Z,22.60
2023-03-21T13:44:23.515Z,28.70
2023-03-21T13:46:59.995Z,19.70
2023-03-21T13:49:32.539Z,22.10
2023-03-21T13:52:03.220Z,29.50
2023-03-21T13:54:51.963Z,24.20
2023-03-21T13:57:40.693Z,21.80
2023-03-21T14:00:20.769Z,24.80
2023-03-21T14:02:59.498Z,25.80
2023-03-21T14:05:30.183Z,29.80
2023-03-21T14:08:15.422Z,27.00
2023-03-21T14:10:52.452Z,21.30
2023-03-21T14:13:25.405Z,26.70
2023-03-21T14:15:58.237Z,24.80
2023-03-21T14:18:52.371Z,26.50
2023-03-21T14:21:24.186Z,26.30
2023-03-21T14:26:33.978Z,27.30
2023-03-21T14:29:07.171Z,29.50
2023-03-21T14:31:36.523Z,28.20
2023-03-21T14:34:06.514Z,22.20
2023-03-21T14:36:43.175Z,24.30
2023-03-21T14:39:17.573Z,22.90
2023-03-21T14:41:49.709Z,21.10
2023-03-21T14:44:24.911Z,20.50
2023-03-21T14:47:01.089Z,20.80
2023-03-21T14:49:32.328Z,35.30
2023-03-21T14:52:06.656Z,30.10
2023-03-21T14:54:39.450Z,19.90
2023-03-21T14:57:13.350Z,21.10
2023-03-21T14:59:43.129Z,23.30
2023-03-21T15:02:18.135Z,19.00
2023-03-21T15:04:51.783Z,18.50
2023-03-21T15:07:27.511Z,18.30
2023-03-21T15:09:58.336Z,19.10
2023-03-21T15:12:27.328Z,21.60
2023-03-21T15:14:57.096Z,20.70
2023-03-21T15:17:27.404Z,19.10
2023-03-21T15:19:56.274Z,21.80
2023-03-21T15:22:32.704Z,23.50
2023-03-21T15:25:05.803Z,19.90
2023-03-21T15:27:42.598Z,17.90
2023-03-21T15:30:21.111Z,17.90
2023-03-21T15:32:51.089Z,20.90
2023-03-21T15:35:25.385Z,22.20
2023-03-21T15:37:56.521Z,19.00
2023-03-21T15:40:28.048Z,20.20
2023-03-21T15:43:13.492Z,19.10
2023-03-21T15:45:49.226Z,21.50
2023-03-21T15:48:26.041Z,19.70
2023-03-21T15:50:59.916Z,24.60
2023-03-21T15:53:33.249Z,21.90
2023-03-21T15:56:05.521Z,21.80
2023-03-21T15:58:36.768Z,30.20
2023-03-21T16:01:10.810Z,21.80
2023-03-21T16:03:45.384Z,18.80
2023-03-21T16:06:21.167Z,27.80
2023-03-21T16:11:25.383Z,23.30
2023-03-21T16:13:55.860Z,23.70
2023-03-21T16:16:26.776Z,22.90
2023-03-21T16:18:57.535Z,23.90
2023-03-21T16:21:28.969Z,21.10
2023-03-21T16:23:58.776Z,22.30
2023-03-21T16:26:30.029Z,25.40
2023-03-21T16:28:59.593Z,24.70
2023-03-21T16:31:30.835Z,27.60
2023-03-21T16:34:01.193Z,25.10
2023-03-21T16:36:32.099Z,23.50
2023-03-21T16:39:01.624Z,32.50
2023-03-21T16:41:30.969Z,25.00
2023-03-21T16:44:00.760Z,25.20
2023-03-21T16:46:29.985Z,26.60
2023-03-21T16:48:59.596Z,24.70
2023-03-21T16:51:33.266Z,26.40
2023-03-21T16:54:02.906Z,24.40
2023-03-21T16:56:38.606Z,27.70
2023-03-21T16:59:08.043Z,30.20
2023-03-21T17:01:39.362Z,23.90
2023-03-21T17:04:08.898Z,29.10
2023-03-21T17:06:44.677Z,20.00
2023-03-21T17:11:43.669Z,20.20
2023-03-21T17:14:15.693Z,19.50
2023-03-21T17:16:45.467Z,22.90
2023-03-21T17:19:16.866Z,30.00
2023-03-21T17:21:46.534Z,26.50
2023-03-21T17:24:16.283Z,22.00
2023-03-21T17:26:45.500Z,28.70
2023-03-21T17:29:15.122Z,23.30
2023-03-21T17:31:46.848Z,32.40
2023-03-21T17:34:16.394Z,32.30
2023-03-21T17:36:48.298Z,28.80
2023-03-21T17:39:20.560Z,21.00
2023-03-21T17:41:49.636Z,28.30
2023-03-21T17:44:18.710Z,24.90
2023-03-21T17:46:50.276Z,29.40
2023-03-21T17:49:20.552Z,24.00
2023-03-21T17:51:49.939Z,27.50
2023-03-21T17:54:18.993Z,27.30
2023-03-21T17:56:48.148Z,25.40
2023-03-21T17:59:17.164Z,32.30
2023-03-21T18:01:47.272Z,26.10
2023-03-21T18:04:16.436Z,21.80
2023-03-21T18:06:45.980Z,35.90
2023-03-21T18:09:18.467Z,28.90
2023-03-21T18:11:50.231Z,28.50
2023-03-21T18:14:25.585Z,27.20
2023-03-21T18:16:57.554Z,28.30
2023-03-21T18:19:27.007Z,35.40
2023-03-21T18:21:56.200Z,26.40
2023-03-21T18:24:25.366Z,27.30
2023-03-21T18:26:54.384Z,32.50
2023-03-21T18:32:12.988Z,30.30
2023-03-21T18:34:41.994Z,30.80
2023-03-21T18:37:13.355Z,27.00
2023-03-21T18:39:43.933Z,30.10
2023-03-21T18:42:17.844Z,44.60
2023-03-21T18:44:51.972Z,37.20
2023-03-21T18:47:21.980Z,33.30
2023-03-21T18:50:14.226Z,30.00
2023-03-21T18:52:41.498Z,30.90
2023-03-21T18:55:14.040Z,30.80
2023-03-21T18:57:43.107Z,26.80
2023-03-21T19:00:16.918Z,30.60
2023-03-21T19:02:50.563Z,34.10
2023-03-21T19:05:22.716Z,28.70
2023-03-21T19:07:52.286Z,35.30
2023-03-21T19:10:23.359Z,35.40
2023-03-21T19:12:54.183Z,35.80
2023-03-21T19:15:23.722Z,27.30
2023-03-21T19:20:46.816Z,24.50
2023-03-21T19:23:17.338Z,28.60
2023-03-21T19:25:47.039Z,30.60
2023-03-21T19:28:16.059Z,28.60
2023-03-21T19:30:50.067Z,28.60
2023-03-21T19:33:20.470Z,30.80
2023-03-21T19:35:50.211Z,25.70
2023-03-21T19:38:19.100Z,29.20
2023-03-21T19:40:48.180Z,27.00
2023-03-21T19:43:33.560Z,29.30
2023-03-21T19:46:03.102Z,26.80
2023-03-21T19:48:32.402Z,28.00
2023-03-21T19:51:26.349Z,25.50
2023-03-21T19:53:51.301Z,30.30
2023-03-21T19:56:23.749Z,26.40
2023-03-21T19:58:55.642Z,28.50
2023-03-21T20:01:25.588Z,29.00
2023-03-21T20:03:54.799Z,29.60
2023-03-21T20:06:23.819Z,24.70
2023-03-21T20:11:42.500Z,25.90
2023-03-21T20:14:11.516Z,23.70
2023-03-21T20:16:43.608Z,25.30
2023-03-21T20:19:15.510Z,27.30
2023-03-21T20:21:49.774Z,30.60
2023-03-21T20:24:22.704Z,23.70
2023-03-21T20:26:53.044Z,23.50
2023-03-21T20:32:11.345Z,26.70
2023-03-21T20:34:40.385Z,23.50
2023-03-21T20:37:09.574Z,25.20
2023-03-21T20:39:38.605Z,29.20
2023-03-21T20:42:07.648Z,25.50
2023-03-21T20:44:56.701Z,22.90
2023-03-21T20:47:26.045Z,20.00
2023-03-21T20:49:56.283Z,25.90
2023-03-21T20:53:00.810Z,23.30
2023-03-21T20:55:14.716Z,23.30
2023-03-21T20:57:44.329Z,28.90
2023-03-21T21:00:16.685Z,34.40
2023-03-21T21:02:47.565Z,21.80
2023-03-21T21:05:25.809Z,23.00
2023-03-21T21:07:58.347Z,24.30
2023-03-21T21:10:28.641Z,22.80
2023-03-21T21:12:57.717Z,30.60
2023-03-21T21:15:26.669Z,25.10
2023-03-21T21:18:05.985Z,28.00
2023-03-21T21:20:36.990Z,25.60
2023-03-21T21:23:07.469Z,24.60
2023-03-21T21:25:36.640Z,26.40
2023-03-21T21:28:08.969Z,22.70
2023-03-21T21:30:40.707Z,22.20
2023-03-21T21:33:09.845Z,29.00
2023-03-21T21:35:38.898Z,25.10
2023-03-21T21:38:07.979Z,24.30
2023-03-21T21:40:37.129Z,36.00
2023-03-21T21:43:06.264Z,32.60
2023-03-21T21:45:36.202Z,25.30
2023-03-21T21:48:06.643Z,28.30
2023-03-21T21:50:37.820Z,29.30
2023-03-21T21:53:07.121Z,36.70
2023-03-21T21:55:36.721Z,32.00
2023-03-21T21:58:07.787Z,28.30
2023-03-21T22:00:37.082Z,26.00
2023-03-21T22:03:07.248Z,28.50
2023-03-21T22:05:36.314Z,26.20
2023-03-21T22:08:05.912Z,31.90
2023-03-21T22:10:35.050Z,29.20
2023-03-21T22:13:04.013Z,36.10
2023-03-21T22:15:33.379Z,30.70
2023-03-21T22:18:02.535Z,32.00
2023-03-21T22:20:33.373Z,31.20
2023-03-21T22:23:02.376Z,30.20
2023-03-21T22:25:33.048Z,35.50
2023-03-21T22:28:02.093Z,32.20
2023-03-21T22:30:31.284Z,31.60
2023-03-21T22:33:09.364Z,29.90
2023-03-21T22:35:39.245Z,30.20
2023-03-21T22:38:08.116Z,33.80
2023-03-21T22:40:37.508Z,37.50
2023-03-21T22:43:08.206Z,33.90
2023-03-21T22:45:37.538Z,36.00
2023-03-21T22:48:06.901Z,37.40
2023-03-21T22:50:35.868Z,36.20
2023-03-21T22:53:04.825Z,37.70
2023-03-21T22:55:33.883Z,34.90
2023-03-21T22:58:02.947Z,32.60
2023-03-21T23:00:32.015Z,36.60
2023-03-21T23:03:00.974Z,45.80
2023-03-21T23:05:30.133Z,35.10
2023-03-21T23:07:58.954Z,36.00
2023-03-21T23:10:27.932Z,34.80
2023-03-21T23:12:56.792Z,34.50
2023-03-21T23:15:25.891Z,36.70
2023-03-21T23:17:54.909Z,35.50
2023-03-21T23:20:23.891Z,32.30
2023-03-21T23:22:52.856Z,32.40
2023-03-21T23:25:24.241Z,35.60
2023-03-21T23:27:53.109Z,30.50
2023-03-21T23:30:22.112Z,33.00
2023-03-21T23:32:51.201Z,35.20
2023-03-21T23:35:20.411Z,34.90
2023-03-21T23:37:51.581Z,36.90
2023-03-21T23:40:20.983Z,31.30
2023-03-21T23:42:49.965Z,31.70
2023-03-21T23:45:19.105Z,29.30
2023-03-21T23:47:48.018Z,36.90
2023-03-21T23:50:17.460Z,34.10
2023-03-21T23:52:46.524Z,32.80
2023-03-21T23:55:15.464Z,29.90
2023-03-21T23:57:44.469Z,36.80
